Observations for LONDON HEATHROW, United Kingdom (EGLL)

EGLL 112220Z AUTO 10007KT 8000 FEW024 BKN034 06/05 Q1022 NOSIG  
EGLL 112150Z AUTO 09006KT 6000 SCT039 05/04 Q1022 NOSIG 
EGLL 112120Z AUTO 09005KT 5000 HZ NCD 05/04 Q1023 TEMPO 4500 BR 
EGLL 112050Z AUTO 09005KT 6000 NCD 05/04 Q1023 TEMPO 4500 BR
EGLL 112020Z AUTO 09006KT 6000 NCD 05/04 Q1023 NOSIG
EGLL 111950Z AUTO 09005KT 7000 NCD 06/04 Q1023 NOSIG
EGLL 111920Z AUTO 10006KT 8000 NCD 06/04 Q1023 NOSIG
EGLL 111850Z AUTO 10006KT 8000 NCD 06/04 Q1023 NOSIG
EGLL 111820Z AUTO 11006KT 9999 NCD 07/04 Q1023 NOSIG
EGLL 111750Z AUTO 12006KT 090V180 9999 NCD 07/04 Q1023 NOSIG
EGLL 111720Z AUTO 13006KT 090V190 9999 NCD 07/04 Q1023 NOSIG
EGLL 111650Z AUTO 14005KT 090V210 9999 NCD 08/04 Q1023 NOSIG
EGLL 111620Z AUTO 15005KT 100V230 9999 NCD 08/04 Q1023 NOSIG
EGLL 111550Z AUTO 15005KT 120V230 9999 NCD 08/04 Q1023  
EGLL 111520Z 15005KT 120V200 9999 FEW016 08/04 Q1023 NOSIG  
EGLL 111450Z AUTO 15006KT 130V250 9999 NCD 08/04 Q1024 NOSIG
EGLL 111420Z AUTO 16005KT 120V190 9999 NCD 09/04 Q1024 NOSIG
EGLL 111350Z AUTO 16005KT 120V190 9999 NCD 09/05 Q1024 NOSIG
EGLL 111320Z AUTO 16004KT 100V240 9999 NCD 09/05 Q1024 NOSIG
EGLL 111250Z AUTO 14004KT 090V200 9999 NCD 08/05 Q1024 NOSIG
EGLL 111220Z AUTO 14005KT 110V170 9999 NCD 08/05 Q1025 NOSIG
EGLL 111150Z AUTO 14004KT 110V180 9999 NCD 08/05 Q1025 NOSIG
EGLL 111120Z AUTO VRB03KT 9999 NCD 07/04 Q1025 NOSIG
EGLL 111050Z AUTO VRB02KT 9999 NCD 06/04 Q1025 NOSIG
EGLL 111020Z AUTO VRB02KT 9999 NCD 05/04 Q1026 NOSIG
EGLL 110950Z VRB02KT CAVOK 04/03 Q1026 NOSIG
EGLL 110920Z AUTO VRB02KT 8000 NCD 04/03 Q1026 NOSIG
EGLL 110850Z AUTO VRB03KT 9000 NCD 03/03 Q1026 NOSIG
EGLL 110820Z VRB02KT 9999 NSC 03/02 Q1026 TEMPO 4000 BR 
EGLL 110750Z 15004KT 120V180 9999 NSC 03/03 Q1026 TEMPO 4000 BR 
EGLL 110720Z AUTO VRB03KT 4200 BR NCD 02/02 Q1026 NOSIG 
EGLL 110650Z VRB02KT 9000 NSC 03/03 Q1026 TEMPO 4000 BR 
EGLL 110620Z VRB03KT 9000 4000W VCFG NSC 03/03 Q1026 TEMPO 4000 BR  
EGLL 110550Z VRB01KT 9000 4000W VCFG NSC 03/03 Q1026 TEMPO 3000 BR  
EGLL 110520Z VRB01KT 9000 3500W VCFG NSC 03/02 Q1026 TEMPO 3000 BR  
EGLL 110450Z AUTO VRB03KT 9000 NCD 03/03 Q1026 TEMPO 3000 BR
EGLL 110420Z AUTO VRB01KT 6000 NCD 02/02 Q1026 TEMPO 3000 BR
EGLL 110350Z AUTO 21001KT 8000 NCD 03/02 Q1026 TEMPO 3000 BR
EGLL 110320Z AUTO 15002KT 9000 NCD 03/02 Q1026 NOSIG
EGLL 110250Z AUTO 17003KT 9999 NCD 03/03 Q1026 NOSIG
EGLL 110220Z AUTO 11001KT 9999 NCD 04/03 Q1027 NOSIG
EGLL 110150Z AUTO VRB02KT 9999 NCD 04/03 Q1027 NOSIG
EGLL 110120Z AUTO 26002KT 9999 NCD 04/03 Q1027 NOSIG
EGLL 110050Z AUTO 30003KT 9999 NCD 05/04 Q1027 NOSIG
EGLL 110020Z AUTO 29003KT 9999 NCD 05/04 Q1027 NOSIG
EGLL 102350Z AUTO 27004KT 9999 NCD 05/04 Q1028 NOSIG
EGLL 102320Z AUTO 28004KT 9999 NCD 06/04 Q1028 NOSIG
EGLL 102250Z AUTO 28007KT 9999 NCD 06/04 Q1028 NOSIG
EGLL 102220Z AUTO 28005KT 9999 NCD 07/05 Q1028 NOSIG
EGLL 102150Z AUTO 28005KT 9999 NCD 07/05 Q1028 NOSIG